Time;durP1;ratioP1;P1;durP2;ratioP2;P2;SDS_P1;SDS_P2;PMS_P1;PMS_P2;Temp;Humidity;BMP_temperature;BMP_pressure;BME280_temperature;BME280_humidity;BME280_pressure;Samples;Min_cycle;Max_cycle;Signal;HPM_P1;HPM_P2
2021/12/17 00:02:15;;;;;;;14.87;14.07;;;19.10;99.90;;;;;;5073988;28;20447;-52
2021/12/17 00:04:50;;;;;;;14.60;13.90;;;19.10;99.90;;;;;;5074059;28;20473;-51
2021/12/17 00:07:19;;;;;;;15.20;14.50;;;19.10;99.90;;;;;;5073512;28;20530;-47
2021/12/17 00:09:50;;;;;;;16.03;15.23;;;19.00;99.90;;;;;;5073992;28;20498;-50
2021/12/17 00:12:23;;;;;;;14.77;14.07;;;19.00;99.90;;;;;;5073729;28;20451;-47
2021/12/17 00:14:52;;;;;;;16.30;15.40;;;19.00;99.90;;;;;;5073949;28;20447;-48
2021/12/17 00:17:26;;;;;;;15.00;14.30;;;18.90;99.90;;;;;;5073798;28;20509;-51
2021/12/17 00:20:35;;;;;;;15.20;14.60;;;18.90;99.90;;;;;;5073742;28;20467;-47
2021/12/17 00:51:15;;;;;;;15.73;14.90;;;18.70;99.90;;;;;;5047159;28;20423;-48
2021/12/17 00:53:42;;;;;;;15.33;14.60;;;18.70;99.90;;;;;;5072889;28;20531;-49
2021/12/17 00:56:11;;;;;;;15.80;15.10;;;18.70;99.90;;;;;;5073099;28;20450;-47
2021/12/17 00:58:41;;;;;;;15.73;14.93;;;18.70;99.90;;;;;;5072906;28;20826;-53
2021/12/17 01:01:10;;;;;;;15.40;14.70;;;18.70;99.90;;;;;;5072846;28;20497;-51
2021/12/17 01:03:39;;;;;;;16.13;15.33;;;18.70;99.90;;;;;;5072661;28;20483;-49
2021/12/17 01:06:07;;;;;;;15.77;15.07;;;18.70;99.90;;;;;;5072781;28;20451;-52
2021/12/17 01:08:36;;;;;;;14.63;14.03;;;18.70;99.90;;;;;;5072718;28;20471;-48
2021/12/17 01:11:06;;;;;;;14.97;14.37;;;18.70;99.90;;;;;;5072694;28;20505;-48
2021/12/17 01:13:37;;;;;;;15.67;14.97;;;18.70;99.90;;;;;;5072588;28;20443;-50
2021/12/17 01:16:05;;;;;;;15.17;14.43;;;18.70;99.90;;;;;;5072636;28;20450;-48
2021/12/17 01:18:44;;;;;;;15.80;15.07;;;18.60;99.90;;;;;;5072365;28;21000;-50
2021/12/17 01:21:32;;;;;;;17.17;16.37;;;18.70;99.90;;;;;;5072339;28;20451;-47
2021/12/17 01:24:10;;;;;;;15.90;15.10;;;18.60;99.90;;;;;;5072518;28;20469;-50
2021/12/17 01:41:02;;;;;;;14.97;14.37;;;18.60;99.90;;;;;;5046117;28;21014;-49
2021/12/17 01:43:35;;;;;;;16.67;15.87;;;18.60;99.90;;;;;;5072027;28;21070;-50
2021/12/17 01:46:04;;;;;;;15.63;14.90;;;18.60;99.90;;;;;;5072384;28;20513;-48
2021/12/17 01:48:37;;;;;;;15.70;15.00;;;18.50;99.90;;;;;;5071888;28;21015;-48
2021/12/17 01:56:52;;;;;;;15.50;14.70;;;18.50;99.90;;;;;;5072098;28;20525;-51
2021/12/17 01:59:30;;;;;;;14.97;14.33;;;18.50;99.90;;;;;;5071894;28;20487;-52
2021/12/17 02:02:02;;;;;;;16.20;15.43;;;18.50;99.90;;;;;;5071753;28;20940;-48
2021/12/17 02:04:30;;;;;;;16.30;15.50;;;18.50;99.90;;;;;;5071911;28;20956;-53
2021/12/17 02:06:58;;;;;;;15.67;15.00;;;18.50;99.90;;;;;;5071826;28;20443;-48
2021/12/17 02:10:07;;;;;;;16.57;15.77;;;18.50;99.90;;;;;;5071756;28;20800;-52
2021/12/17 02:13:00;;;;;;;15.20;14.50;;;18.50;99.90;;;;;;5071425;28;20533;-50
2021/12/17 02:32:31;;;;;;;15.70;15.00;;;18.40;99.90;;;;;;5062509;28;20450;-53
2021/12/17 02:37:55;;;;;;;15.63;14.90;;;18.40;99.90;;;;;;5026985;28;20441;-49
2021/12/17 02:45:54;;;;;;;15.50;14.80;;;18.40;99.90;;;;;;5088860;28;20789;-51
2021/12/17 02:48:22;;;;;;;17.23;16.23;;;18.40;99.90;;;;;;5088606;28;20991;-51
2021/12/17 02:50:52;;;;;;;15.17;14.47;;;18.40;99.90;;;;;;5088694;28;20450;-51
2021/12/17 02:53:21;;;;;;;14.53;13.73;;;18.40;99.90;;;;;;5088354;28;20438;-52
2021/12/17 02:55:53;;;;;;;15.10;14.40;;;18.40;99.90;;;;;;5088595;28;20457;-53
2021/12/17 02:58:22;;;;;;;15.60;14.90;;;18.40;99.90;;;;;;5088520;28;20459;-51
2021/12/17 03:00:50;;;;;;;14.90;14.20;;;18.40;99.90;;;;;;5088572;28;20450;-51
2021/12/17 03:03:19;;;;;;;14.90;14.20;;;18.40;99.90;;;;;;5088140;28;20485;-51
2021/12/17 03:05:46;;;;;;;15.10;14.37;;;18.40;99.90;;;;;;5088470;28;20469;-49
2021/12/17 03:08:15;;;;;;;16.57;15.77;;;18.40;99.90;;;;;;5088230;28;20821;-51
2021/12/17 03:10:42;;;;;;;15.83;15.13;;;18.40;99.90;;;;;;5088368;28;20446;-48
2021/12/17 03:13:11;;;;;;;16.00;15.20;;;18.40;99.90;;;;;;5088017;28;20442;-55
2021/12/17 03:15:43;;;;;;;16.23;15.43;;;18.40;99.90;;;;;;5088224;28;20446;-53
2021/12/17 03:18:50;;;;;;;15.83;15.03;;;18.40;99.90;;;;;;5088106;28;20492;-50
2021/12/17 03:24:01;;;;;;;17.63;16.70;;;18.40;99.90;;;;;;5087949;28;20473;-53
2021/12/17 03:26:29;;;;;;;15.40;14.70;;;18.30;99.90;;;;;;5088031;28;20438;-52
2021/12/17 03:28:59;;;;;;;15.90;15.20;;;18.30;99.90;;;;;;5087860;28;20475;-49
2021/12/17 03:31:27;;;;;;;16.00;15.10;;;18.40;99.90;;;;;;5087808;28;20435;-51
2021/12/17 03:34:01;;;;;;;16.53;15.60;;;18.30;99.90;;;;;;5081796;28;20466;-55
2021/12/17 03:36:28;;;;;;;16.63;15.77;;;18.30;99.90;;;;;;5074476;28;20443;-52
2021/12/17 03:38:55;;;;;;;16.73;15.83;;;18.30;99.90;;;;;;5074157;28;20471;-49
2021/12/17 03:41:26;;;;;;;15.97;15.10;;;18.30;99.90;;;;;;5074249;28;20956;-53
2021/12/17 03:43:54;;;;;;;16.97;15.93;;;18.30;99.90;;;;;;5074102;28;20483;-50
2021/12/17 03:46:25;;;;;;;16.80;15.90;;;18.30;99.90;;;;;;5074140;28;20443;-50
2021/12/17 03:48:52;;;;;;;16.40;15.60;;;18.30;99.90;;;;;;5074001;28;20467;-49
2021/12/17 03:51:19;;;;;;;15.07;14.37;;;18.30;99.90;;;;;;5073966;28;20455;-52
2021/12/17 03:53:48;;;;;;;16.40;15.60;;;18.30;99.90;;;;;;5073755;28;20534;-51
2021/12/17 03:56:14;;;;;;;15.73;15.03;;;18.30;99.90;;;;;;5073910;28;20454;-51
2021/12/17 03:58:41;;;;;;;15.10;14.50;;;18.30;99.90;;;;;;5073826;28;20468;-52
2021/12/17 04:01:08;;;;;;;15.50;14.90;;;18.30;99.90;;;;;;5073876;28;20802;-49
2021/12/17 04:03:36;;;;;;;17.47;16.67;;;18.30;99.90;;;;;;5073574;28;20486;-51
2021/12/17 04:06:03;;;;;;;15.87;15.17;;;18.30;99.90;;;;;;5073809;28;20446;-54
2021/12/17 04:08:30;;;;;;;16.27;15.53;;;18.30;99.90;;;;;;5073665;28;20467;-50
2021/12/17 04:11:03;;;;;;;16.23;15.43;;;18.30;99.90;;;;;;5073917;28;20451;-50
2021/12/17 04:13:33;;;;;;;16.13;15.33;;;18.30;99.90;;;;;;5073506;28;20801;-50
2021/12/17 04:16:03;;;;;;;16.90;16.00;;;18.30;99.90;;;;;;5073775;28;20451;-51
2021/12/17 04:18:31;;;;;;;15.87;15.07;;;18.30;99.90;;;;;;5073861;28;20470;-49
2021/12/17 04:21:03;;;;;;;16.20;15.50;;;18.30;99.90;;;;;;5073503;28;20458;-49
2021/12/17 04:23:31;;;;;;;16.03;15.13;;;18.30;99.90;;;;;;5073002;28;20578;-50
2021/12/17 04:25:59;;;;;;;17.50;16.60;;;18.30;99.90;;;;;;5073392;28;20534;-50
2021/12/17 04:28:26;;;;;;;16.90;16.00;;;18.20;99.90;;;;;;5073276;28;20824;-48
2021/12/17 04:30:54;;;;;;;17.73;16.63;;;18.20;99.90;;;;;;5073341;28;20446;-50
2021/12/17 04:33:20;;;;;;;17.40;16.40;;;18.20;99.90;;;;;;5073113;28;20504;-50
2021/12/17 04:35:47;;;;;;;15.77;15.07;;;18.20;99.90;;;;;;5073338;28;20444;-49
2021/12/17 04:38:16;;;;;;;17.20;16.40;;;18.20;99.90;;;;;;5073088;28;20467;-51
2021/12/17 04:40:44;;;;;;;18.47;17.47;;;18.20;99.90;;;;;;5073238;28;20486;-52
2021/12/17 04:43:19;;;;;;;17.10;16.20;;;18.20;99.90;;;;;;5072811;28;20545;-52
2021/12/17 04:45:53;;;;;;;16.03;15.20;;;18.30;99.90;;;;;;5072149;28;20443;-50
2021/12/17 04:59:32;;;;;;;18.03;17.13;;;18.20;99.90;;;;;;5010662;28;20529;-50
2021/12/17 05:02:01;;;;;;;16.43;15.53;;;18.20;99.90;;;;;;5010554;28;20445;-50
2021/12/17 05:04:28;;;;;;;17.63;16.73;;;18.20;99.90;;;;;;5037924;28;20486;-52
2021/12/17 05:06:55;;;;;;;17.23;16.20;;;18.20;99.90;;;;;;5072533;28;20442;-52
2021/12/17 05:09:31;;;;;;;17.40;16.60;;;18.20;99.90;;;;;;5072426;28;20981;-50
2021/12/17 05:20:26;;;;;;;16.90;16.10;;;18.20;99.90;;;;;;5072324;28;20711;-50
2021/12/17 05:22:57;;;;;;;18.03;17.10;;;18.20;99.90;;;;;;5072044;28;20791;-52
2021/12/17 05:25:27;;;;;;;18.03;17.13;;;18.20;99.90;;;;;;5072462;28;20447;-47
2021/12/17 05:27:55;;;;;;;17.40;16.60;;;18.20;99.90;;;;;;5072194;28;20528;-48
2021/12/17 05:30:22;;;;;;;16.87;16.03;;;18.20;99.90;;;;;;5072204;28;20479;-50
2021/12/17 05:32:48;;;;;;;16.50;15.70;;;18.20;99.90;;;;;;5071989;28;20842;-48
2021/12/17 05:35:15;;;;;;;17.47;16.57;;;18.20;99.90;;;;;;5072012;28;20447;-48
2021/12/17 05:37:42;;;;;;;16.30;15.60;;;18.20;99.90;;;;;;5072122;28;20447;-48
2021/12/17 05:40:10;;;;;;;19.20;18.10;;;18.20;99.90;;;;;;5072064;28;20980;-52
2021/12/17 05:42:39;;;;;;;16.97;16.10;;;18.20;99.90;;;;;;5071787;28;20549;-51
2021/12/17 05:45:10;;;;;;;35.17;31.87;;;18.20;99.90;;;;;;5071885;28;20490;-51
2021/12/17 05:47:37;;;;;;;37.87;34.17;;;18.00;99.90;;;;;;5071764;28;20435;-50
2021/12/17 05:50:04;;;;;;;41.30;35.13;;;17.30;99.90;;;;;;5071803;28;20871;-48
2021/12/17 05:52:32;;;;;;;40.13;35.93;;;16.70;99.90;;;;;;5071578;28;20447;-49
2021/12/17 05:54:59;;;;;;;36.43;32.80;;;16.60;99.90;;;;;;5071848;28;20452;-48
2021/12/17 05:57:25;;;;;;;39.00;34.93;;;16.60;99.90;;;;;;5071479;28;20440;-49
2021/12/17 05:59:53;;;;;;;36.60;32.80;;;16.60;99.90;;;;;;5071692;28;20467;-49
2021/12/17 06:02:20;;;;;;;35.43;32.13;;;16.70;99.90;;;;;;5071432;28;20439;-55
2021/12/17 06:04:47;;;;;;;36.93;33.13;;;16.60;99.90;;;;;;5071505;28;20479;-52
2021/12/17 06:07:14;;;;;;;35.20;31.50;;;16.50;99.90;;;;;;5071619;28;20447;-50
2021/12/17 06:09:41;;;;;;;39.10;30.00;;;16.50;99.90;;;;;;5071483;28;20478;-48
2021/12/17 06:12:08;;;;;;;36.33;31.80;;;16.50;99.90;;;;;;5071432;28;20494;-48
2021/12/17 06:14:35;;;;;;;34.77;31.00;;;16.50;99.90;;;;;;5071571;28;20494;-49
2021/12/17 06:17:03;;;;;;;35.40;30.60;;;16.50;99.90;;;;;;5071431;28;20443;-51
2021/12/17 06:19:30;;;;;;;39.67;33.73;;;16.30;99.90;;;;;;5071422;28;21125;-50
2021/12/17 06:21:58;;;;;;;38.03;32.10;;;16.30;99.90;;;;;;5071078;28;20460;-51
2021/12/17 06:24:25;;;;;;;37.50;33.57;;;16.30;99.90;;;;;;5071381;28;20483;-52
2021/12/17 06:26:52;;;;;;;39.30;35.00;;;16.10;99.90;;;;;;5071328;28;20455;-51
2021/12/17 06:29:18;;;;;;;37.20;32.87;;;16.00;99.90;;;;;;5071285;28;20464;-50
2021/12/17 06:31:45;;;;;;;33.63;30.37;;;16.10;99.90;;;;;;5071235;28;20820;-49
2021/12/17 06:34:14;;;;;;;34.87;31.30;;;16.10;99.90;;;;;;5071073;28;20454;-49
2021/12/17 06:36:40;;;;;;;33.67;30.30;;;16.10;99.90;;;;;;5071198;28;20976;-50
2021/12/17 06:39:07;;;;;;;35.00;31.50;;;16.00;99.90;;;;;;5071141;28;20482;-48
2021/12/17 06:41:34;;;;;;;36.23;32.33;;;16.10;99.90;;;;;;5071084;28;20451;-48
2021/12/17 06:44:01;;;;;;;33.13;29.83;;;16.20;99.90;;;;;;5071048;28;20479;-52
2021/12/17 06:46:35;;;;;;;31.60;28.43;;;16.10;99.90;;;;;;5071204;28;20842;-49
2021/12/17 06:49:19;;;;;;;36.03;32.30;;;16.20;99.90;;;;;;5069781;28;20526;-53
2021/12/17 06:54:57;;;;;;;34.10;30.60;;;15.80;99.90;;;;;;5071050;28;20419;-48
2021/12/17 06:58:07;;;;;;;32.40;29.10;;;15.70;99.90;;;;;;5071203;28;20447;-48
2021/12/17 07:01:03;;;;;;;31.20;28.17;;;15.70;99.90;;;;;;5070966;28;20443;-50
2021/12/17 07:06:26;;;;;;;31.30;28.37;;;15.50;99.90;;;;;;5071172;28;20931;-48
2021/12/17 07:11:51;;;;;;;32.43;29.10;;;15.30;99.90;;;;;;5074628;28;20829;-52
2021/12/17 07:17:21;;;;;;;37.07;28.87;;;15.20;99.90;;;;;;5074623;28;20970;-51
2021/12/17 07:20:44;;;;;;;32.77;27.63;;;15.20;99.90;;;;;;5074519;28;20550;-53
2021/12/17 07:23:05;;;;;;;30.47;25.37;;;15.20;99.90;;;;;;5074025;28;20530;-50
2021/12/17 07:28:49;;;;;;;30.77;27.30;;;15.10;99.90;;;;;;5074386;28;20443;-50
2021/12/17 07:34:02;;;;;;;31.90;25.10;;;15.10;99.90;;;;;;5074349;28;20415;-49
2021/12/17 07:36:38;;;;;;;31.20;25.17;;;15.00;99.90;;;;;;5074291;28;20517;-49
2021/12/17 07:39:04;;;;;;;31.50;25.53;;;15.10;99.90;;;;;;5074146;28;20458;-51
2021/12/17 07:41:32;;;;;;;36.20;24.70;;;15.20;99.90;;;;;;5074083;28;20463;-50
2021/12/17 07:44:01;;;;;;;40.80;26.33;;;15.10;99.90;;;;;;5074032;28;20532;-50
2021/12/17 07:46:28;;;;;;;28.57;24.73;;;15.00;99.90;;;;;;5074056;28;20450;-50
2021/12/17 07:48:56;;;;;;;30.27;24.77;;;15.10;99.90;;;;;;5073975;28;21019;-50
2021/12/17 07:51:25;;;;;;;32.23;22.40;;;15.10;99.90;;;;;;5074011;28;20458;-53
2021/12/17 07:53:52;;;;;;;33.93;23.77;;;15.30;99.90;;;;;;5073841;28;20442;-52
2021/12/17 07:56:21;;;;;;;33.87;24.43;;;15.30;99.90;;;;;;5073941;28;20447;-50
2021/12/17 07:58:49;;;;;;;32.43;24.70;;;15.30;99.90;;;;;;5073845;28;20553;-50
2021/12/17 08:01:16;;;;;;;26.07;22.07;;;15.10;99.90;;;;;;5073895;28;20454;-51
2021/12/17 08:03:43;;;;;;;30.87;22.57;;;15.40;99.90;;;;;;5073411;28;20502;-52
2021/12/17 08:06:11;;;;;;;30.20;23.60;;;15.40;99.90;;;;;;5073840;28;20451;-50
2021/12/17 08:08:39;;;;;;;28.43;21.57;;;15.30;99.90;;;;;;5073693;28;20475;-53
2021/12/17 08:11:07;;;;;;;30.93;22.70;;;15.30;99.90;;;;;;5073646;28;20935;-49
2021/12/17 08:13:36;;;;;;;25.47;21.93;;;15.40;99.90;;;;;;5073437;28;20451;-49
2021/12/17 08:16:15;;;;;;;27.13;24.43;;;15.60;99.90;;;;;;5073408;28;20465;-48
2021/12/17 08:18:53;;;;;;;24.70;22.30;;;15.70;99.90;;;;;;5073424;28;20604;-48
2021/12/17 08:27:09;;;;;;;30.07;23.87;;;15.30;99.90;;;;;;5067814;28;20434;-50
2021/12/17 08:29:53;;;;;;;28.30;25.27;;;15.20;99.90;;;;;;5073171;28;20513;-48
2021/12/17 08:32:21;;;;;;;25.80;22.83;;;15.10;99.90;;;;;;5072900;28;20467;-48
2021/12/17 08:34:48;;;;;;;28.33;23.57;;;14.90;99.90;;;;;;5073152;28;20990;-47
2021/12/17 08:37:15;;;;;;;28.30;23.13;;;14.90;99.90;;;;;;5083757;22;20499;-48
2021/12/17 08:39:42;;;;;;;25.37;22.47;;;14.90;99.90;;;;;;5046184;28;20452;-48
2021/12/17 08:42:09;;;;;;;25.93;22.03;;;14.80;99.90;;;;;;5052929;28;20820;-48
2021/12/17 08:44:35;;;;;;;23.83;21.27;;;14.90;99.90;;;;;;5052996;28;20476;-48
2021/12/17 08:47:02;;;;;;;22.50;20.37;;;15.00;99.90;;;;;;5052807;28;20999;-48
2021/12/17 08:49:30;;;;;;;21.40;19.33;;;15.00;99.90;;;;;;5052932;28;20941;-49
2021/12/17 08:51:57;;;;;;;21.73;18.20;;;15.00;99.90;;;;;;5052652;28;20455;-48
2021/12/17 08:54:24;;;;;;;21.67;19.50;;;14.90;99.90;;;;;;5052795;28;20436;-48
2021/12/17 08:56:50;;;;;;;20.97;19.00;;;15.00;99.90;;;;;;5052705;28;20547;-50
2021/12/17 08:59:18;;;;;;;20.50;18.40;;;15.30;99.90;;;;;;5052720;28;20444;-49
2021/12/17 09:01:45;;;;;;;21.37;19.17;;;15.20;99.90;;;;;;5052470;28;20456;-48
2021/12/17 09:04:12;;;;;;;20.20;18.20;;;15.00;99.90;;;;;;5052549;28;20919;-48
2021/12/17 09:06:41;;;;;;;21.50;19.23;;;14.90;99.90;;;;;;5052617;28;20957;-48
2021/12/17 09:09:07;;;;;;;22.03;19.80;;;14.80;99.90;;;;;;5052576;28;20451;-47
2021/12/17 09:11:35;;;;;;;20.70;18.70;;;14.70;99.90;;;;;;5052464;28;20815;-48
2021/12/17 09:14:05;;;;;;;21.27;19.10;;;14.80;99.90;;;;;;5052447;28;20448;-48
2021/12/17 09:16:32;;;;;;;20.20;18.33;;;14.70;99.90;;;;;;5052417;28;20460;-48
2021/12/17 09:18:58;;;;;;;20.30;18.47;;;14.80;99.90;;;;;;5052324;28;20444;-48
2021/12/17 09:21:25;;;;;;;20.87;18.90;;;14.80;99.90;;;;;;5052203;28;20811;-48
2021/12/17 09:23:53;;;;;;;19.47;17.97;;;14.70;99.90;;;;;;5052266;28;20482;-48
2021/12/17 09:26:22;;;;;;;20.07;18.23;;;14.70;99.90;;;;;;5052278;28;20472;-48
2021/12/17 09:28:48;;;;;;;21.30;19.27;;;14.60;99.90;;;;;;5052477;28;20448;-50
2021/12/17 09:31:15;;;;;;;19.37;17.50;;;14.60;99.90;;;;;;5051678;28;20528;-49
2021/12/17 09:33:44;;;;;;;20.47;18.47;;;14.70;99.90;;;;;;5051946;28;20952;-48
2021/12/17 09:36:12;;;;;;;20.00;18.23;;;14.70;99.90;;;;;;5051855;28;20840;-48
2021/12/17 09:38:38;;;;;;;21.30;19.03;;;14.70;99.90;;;;;;5052312;28;20778;-49
2021/12/17 09:41:07;;;;;;;23.37;20.13;;;14.70;99.90;;;;;;5051888;28;20933;-48
2021/12/17 09:43:36;;;;;;;18.23;16.53;;;14.80;99.90;;;;;;5051642;28;20443;-50
2021/12/17 09:46:05;;;;;;;19.57;17.73;;;14.90;99.90;;;;;;5051924;28;20448;-48
2021/12/17 09:48:33;;;;;;;20.33;18.10;;;14.80;99.90;;;;;;5051847;28;20448;-48
2021/12/17 09:51:01;;;;;;;23.10;21.10;;;14.90;99.90;;;;;;5051726;28;20949;-48
2021/12/17 09:53:28;;;;;;;19.13;17.50;;;14.90;99.90;;;;;;5051661;28;20444;-48
2021/12/17 09:55:56;;;;;;;19.47;17.87;;;14.80;99.90;;;;;;5051637;28;20475;-49
2021/12/17 09:58:24;;;;;;;20.17;18.30;;;14.70;99.90;;;;;;5051807;28;20444;-51
2021/12/17 10:00:51;;;;;;;19.97;17.97;;;14.70;99.90;;;;;;5051898;28;20813;-49
2021/12/17 10:03:18;;;;;;;21.17;19.17;;;14.70;99.90;;;;;;5051520;28;20844;-52
2021/12/17 10:05:45;;;;;;;20.03;18.33;;;14.70;99.90;;;;;;5051538;28;20484;-52
2021/12/17 10:08:16;;;;;;;17.07;15.80;;;14.80;99.90;;;;;;5051884;28;20469;-53
2021/12/17 10:10:44;;;;;;;17.17;15.70;;;14.90;99.90;;;;;;5052590;28;21021;-47
2021/12/17 10:13:13;;;;;;;15.87;14.97;;;16.10;99.90;;;;;;5051775;28;20451;-52
2021/12/17 10:15:43;;;;;;;16.00;14.97;;;16.90;99.90;;;;;;5052217;28;20464;-53
2021/12/17 10:18:11;;;;;;;17.37;16.17;;;17.40;99.90;;;;;;5051555;28;20467;-50
2021/12/17 10:20:43;;;;;;;16.23;15.27;;;17.70;99.90;;;;;;5051645;28;20942;-48
2021/12/17 10:23:12;;;;;;;15.90;14.90;;;17.90;99.90;;;;;;5051429;28;20448;-49
2021/12/17 10:25:43;;;;;;;15.43;14.60;;;18.10;99.90;;;;;;5051441;28;20476;-49
2021/12/17 10:28:11;;;;;;;16.87;15.93;;;18.20;99.90;;;;;;5051572;28;20461;-49
2021/12/17 10:30:41;;;;;;;15.53;14.70;;;18.30;99.90;;;;;;5052352;28;20502;-51
2021/12/17 10:33:10;;;;;;;17.03;15.83;;;18.40;99.90;;;;;;5051405;28;20519;-49
2021/12/17 10:35:40;;;;;;;15.83;15.03;;;18.50;99.90;;;;;;5051535;28;20437;-50
2021/12/17 10:38:11;;;;;;;16.40;15.20;;;18.50;99.90;;;;;;5051636;28;20548;-48
2021/12/17 10:40:44;;;;;;;16.60;15.40;;;18.60;99.90;;;;;;5051210;28;20445;-46
2021/12/17 10:43:16;;;;;;;16.63;15.63;;;18.70;99.90;;;;;;5051433;28;20444;-50
2021/12/17 10:45:59;;;;;;;16.70;15.40;;;18.70;99.90;;;;;;5055507;28;20484;-49
2021/12/17 10:48:31;;;;;;;16.17;15.17;;;18.80;99.90;;;;;;5055850;28;20440;-49
2021/12/17 10:51:18;;;;;;;17.87;16.63;;;18.80;99.90;;;;;;5055357;28;20880;-48
2021/12/17 10:53:50;;;;;;;15.63;14.73;;;18.80;99.90;;;;;;5055155;28;20444;-50
2021/12/17 10:56:18;;;;;;;15.53;14.63;;;18.70;99.90;;;;;;5055165;28;20456;-48
2021/12/17 10:58:59;;;;;;;15.33;14.53;;;18.60;99.90;;;;;;5055151;28;20510;-50
2021/12/17 11:01:33;;;;;;;15.40;14.60;;;18.60;99.90;;;;;;5055038;28;20809;-47
2021/12/17 11:04:24;;;;;;;16.90;16.00;;;18.60;99.90;;;;;;5055013;28;20934;-47
2021/12/17 11:06:54;;;;;;;16.83;15.87;;;18.60;99.90;;;;;;5036148;28;20504;-48
2021/12/17 11:09:39;;;;;;;16.60;15.37;;;18.60;99.90;;;;;;5055359;28;20456;-48
2021/12/17 11:12:28;;;;;;;15.13;14.40;;;18.60;99.90;;;;;;5054913;28;20447;-50
2021/12/17 11:14:57;;;;;;;17.10;16.30;;;18.60;99.90;;;;;;5055221;28;20853;-51
2021/12/17 11:17:25;;;;;;;15.30;14.47;;;18.60;99.90;;;;;;5054997;28;20496;-49
2021/12/17 11:19:55;;;;;;;15.60;14.70;;;18.60;99.90;;;;;;5054763;28;20446;-47
2021/12/17 11:22:23;;;;;;;15.30;14.50;;;18.50;99.90;;;;;;5054573;28;20451;-47
2021/12/17 11:24:51;;;;;;;16.20;15.30;;;18.60;99.90;;;;;;5054865;28;20931;-46
2021/12/17 11:27:18;;;;;;;15.63;14.90;;;18.60;99.90;;;;;;5054546;28;20467;-50
2021/12/17 11:29:45;;;;;;;15.03;14.37;;;18.60;99.90;;;;;;5054561;28;20821;-49
2021/12/17 11:32:13;;;;;;;16.43;15.63;;;18.60;99.90;;;;;;5054287;28;20960;-48
2021/12/17 11:34:42;;;;;;;16.50;15.20;;;18.60;99.90;;;;;;5054656;28;20824;-49
2021/12/17 11:37:10;;;;;;;14.83;14.10;;;18.60;99.90;;;;;;5054347;28;20525;-48
2021/12/17 11:39:41;;;;;;;16.07;15.17;;;18.60;99.90;;;;;;5054563;28;20960;-48
2021/12/17 11:42:19;;;;;;;15.33;14.63;;;18.60;99.90;;;;;;5054479;28;20456;-47
2021/12/17 11:45:22;;;;;;;15.37;14.67;;;18.70;99.90;;;;;;5054464;28;20914;-47
2021/12/17 11:47:35;;;;;;;16.30;15.40;;;18.70;99.90;;;;;;5054095;28;20474;-48
2021/12/17 11:50:08;;;;;;;16.30;15.47;;;18.70;99.90;;;;;;5054402;28;20459;-50
2021/12/17 11:52:45;;;;;;;14.80;14.10;;;18.80;99.90;;;;;;5053912;28;20448;-48
2021/12/17 11:55:27;;;;;;;16.10;15.10;;;18.80;99.90;;;;;;5053786;28;20447;-47
2021/12/17 11:57:57;;;;;;;16.07;15.27;;;18.90;99.90;;;;;;5053967;28;20468;-47
2021/12/17 12:00:26;;;;;;;16.23;15.53;;;18.90;99.90;;;;;;5054117;28;20462;-50
2021/12/17 12:02:54;;;;;;;15.10;14.40;;;18.90;99.90;;;;;;5053714;28;20452;-49
2021/12/17 12:05:37;;;;;;;15.60;14.80;;;19.00;99.90;;;;;;5053872;28;20487;-49
2021/12/17 12:08:35;;;;;;;14.93;14.23;;;19.00;99.90;;;;;;5053719;28;20464;-48
2021/12/17 12:11:07;;;;;;;15.80;15.10;;;19.10;99.90;;;;;;5053645;28;20440;-47
2021/12/17 12:13:35;;;;;;;14.87;14.27;;;19.10;99.90;;;;;;5053563;28;20880;-47
2021/12/17 12:16:03;;;;;;;15.53;14.73;;;19.10;99.90;;;;;;5053545;28;20853;-47
2021/12/17 12:18:40;;;;;;;16.03;15.33;;;19.10;99.90;;;;;;5053668;28;20472;-47
2021/12/17 12:21:09;;;;;;;15.37;14.60;;;19.10;99.90;;;;;;5053756;28;20447;-47
2021/12/17 12:23:41;;;;;;;15.60;14.90;;;19.10;99.90;;;;;;5053356;28;20451;-48
2021/12/17 12:26:20;;;;;;;15.80;15.10;;;19.10;99.90;;;;;;5053335;28;20476;-47
2021/12/17 12:28:54;;;;;;;16.67;15.80;;;19.10;99.90;;;;;;5053403;28;20443;-47
2021/12/17 12:32:00;;;;;;;16.37;15.77;;;19.10;99.90;;;;;;5053263;28;20455;-47
2021/12/17 12:34:33;;;;;;;16.50;15.80;;;19.00;99.90;;;;;;5053553;28;20452;-49
2021/12/17 12:37:04;;;;;;;17.47;16.60;;;19.00;99.90;;;;;;5053083;28;20483;-48
2021/12/17 12:39:33;;;;;;;16.87;16.07;;;19.00;99.90;;;;;;5053503;28;20440;-50
2021/12/17 12:42:05;;;;;;;16.37;15.67;;;18.90;99.90;;;;;;5052780;28;20458;-47
2021/12/17 12:45:09;;;;;;;15.60;14.90;;;19.00;99.90;;;;;;5053192;28;20448;-47
2021/12/17 12:47:46;;;;;;;16.60;15.70;;;19.00;99.90;;;;;;5053106;28;20467;-48
2021/12/17 12:50:14;;;;;;;15.53;14.90;;;19.00;99.90;;;;;;5053121;28;21081;-47
2021/12/17 12:52:45;;;;;;;14.83;14.23;;;19.00;99.90;;;;;;5052728;28;20955;-47
2021/12/17 12:55:19;;;;;;;16.40;15.70;;;19.00;99.90;;;;;;5053182;28;20539;-47
2021/12/17 12:57:49;;;;;;;15.30;14.50;;;19.00;99.90;;;;;;5052976;28;20459;-47
2021/12/17 13:00:19;;;;;;;15.70;15.10;;;19.00;99.90;;;;;;5052939;28;20440;-47
2021/12/17 13:02:50;;;;;;;16.10;15.40;;;19.10;99.90;;;;;;5052697;28;20440;-46
2021/12/17 13:05:17;;;;;;;16.27;15.67;;;19.00;99.90;;;;;;5052577;28;20490;-46
2021/12/17 13:07:48;;;;;;;15.97;15.37;;;19.00;99.90;;;;;;5051864;28;20471;-47
2021/12/17 13:10:18;;;;;;;16.03;15.33;;;19.00;99.90;;;;;;5052717;28;20848;-47
2021/12/17 13:12:51;;;;;;;16.50;15.80;;;19.00;99.90;;;;;;5052465;28;20455;-47
2021/12/17 13:15:32;;;;;;;16.20;15.50;;;19.00;99.90;;;;;;5052630;28;20447;-48
2021/12/17 13:21:00;;;;;;;15.97;15.27;;;19.00;99.90;;;;;;5052766;28;20424;-49
2021/12/17 13:23:30;;;;;;;16.33;15.63;;;18.90;99.90;;;;;;5052245;28;20498;-47
2021/12/17 13:26:02;;;;;;;14.97;14.40;;;18.90;99.90;;;;;;5052230;28;20488;-47
2021/12/17 13:28:29;;;;;;;15.60;14.93;;;18.90;99.90;;;;;;5052436;28;20494;-47
2021/12/17 13:30:56;;;;;;;15.07;14.47;;;18.90;99.90;;;;;;5052280;28;20578;-49
2021/12/17 13:33:34;;;;;;;14.97;14.37;;;19.00;99.90;;;;;;5052154;28;20821;-47
2021/12/17 13:36:02;;;;;;;15.60;15.00;;;18.90;99.90;;;;;;5052080;28;20436;-46
2021/12/17 13:38:33;;;;;;;16.27;15.57;;;18.90;99.90;;;;;;5052200;28;20929;-47
2021/12/17 13:40:59;;;;;;;15.93;15.10;;;18.90;99.90;;;;;;5052261;28;20802;-46
2021/12/17 13:43:27;;;;;;;15.93;15.23;;;18.90;99.90;;;;;;5052129;28;20458;-47
2021/12/17 13:45:55;;;;;;;16.83;15.90;;;18.90;99.90;;;;;;5051958;28;20482;-46
2021/12/17 13:48:22;;;;;;;15.37;14.77;;;18.90;99.90;;;;;;5051954;28;20452;-49
2021/12/17 13:50:50;;;;;;;15.83;15.23;;;18.90;99.90;;;;;;5051993;28;20952;-47
2021/12/17 13:53:18;;;;;;;14.90;14.30;;;18.90;99.90;;;;;;5051786;28;20452;-47
2021/12/17 13:55:49;;;;;;;15.10;14.47;;;18.90;99.90;;;;;;5051862;28;20472;-46
2021/12/17 13:58:19;;;;;;;14.77;14.27;;;18.80;99.90;;;;;;5051804;28;20472;-46
2021/12/17 14:00:49;;;;;;;15.27;14.67;;;18.80;99.90;;;;;;5052033;28;21070;-47
2021/12/17 14:03:19;;;;;;;14.43;13.83;;;18.90;99.90;;;;;;5051680;28;20455;-47
2021/12/17 14:05:50;;;;;;;15.57;14.93;;;18.90;99.90;;;;;;5051737;28;20557;-48
2021/12/17 14:08:20;;;;;;;14.23;13.63;;;18.90;99.90;;;;;;5051657;28;20500;-48
2021/12/17 14:10:49;;;;;;;15.10;14.50;;;18.90;99.90;;;;;;5051614;28;20448;-46
2021/12/17 14:13:18;;;;;;;14.07;13.53;;;18.90;99.90;;;;;;5051373;28;20996;-47
2021/12/17 14:15:45;;;;;;;14.93;14.23;;;18.90;99.90;;;;;;5051571;28;20444;-47
2021/12/17 14:18:15;;;;;;;15.27;14.67;;;19.00;99.90;;;;;;5051294;28;20503;-47
2021/12/17 14:20:44;;;;;;;13.90;13.40;;;19.00;99.90;;;;;;5051592;28;20448;-48
2021/12/17 14:23:13;;;;;;;14.47;13.97;;;19.00;99.90;;;;;;5051275;28;20519;-47
2021/12/17 14:25:41;;;;;;;14.57;14.00;;;19.00;99.90;;;;;;5051356;28;20872;-47
2021/12/17 14:28:17;;;;;;;14.07;13.57;;;19.00;99.90;;;;;;5051479;28;20996;-47
2021/12/17 14:30:48;;;;;;;15.20;14.60;;;19.10;99.90;;;;;;5051427;28;20937;-50
2021/12/17 14:33:17;;;;;;;13.63;13.13;;;19.10;99.90;;;;;;5051419;28;20466;-47
2021/12/17 14:35:50;;;;;;;14.23;13.73;;;19.00;99.90;;;;;;5051433;28;20455;-48
2021/12/17 14:38:18;;;;;;;13.90;13.40;;;19.00;99.90;;;;;;5051624;28;20503;-46
2021/12/17 14:40:58;;;;;;;14.27;13.70;;;19.00;99.90;;;;;;5051368;28;20609;-46
2021/12/17 14:43:30;;;;;;;13.83;13.33;;;18.90;99.90;;;;;;5051196;28;20448;-45
2021/12/17 14:46:08;;;;;;;15.50;14.80;;;18.90;99.90;;;;;;5051174;28;20476;-46
2021/12/17 14:48:42;;;;;;;14.17;13.67;;;18.90;99.90;;;;;;5051092;28;20506;-46
2021/12/17 15:02:26;;;;;;;15.80;15.20;;;18.90;99.90;;;;;;5051010;28;20427;-46